sensor_id;sensor_type;location;lat;lon;timestamp;P1;P2;P0
77239;PMS7003;66258;53.170;-2.240;2023-04-21T00:00:42;19.50;17.50;13.50
77239;PMS7003;66258;53.170;-2.240;2023-04-21T00:03:09;20.75;15.50;13.00
77239;PMS7003;66258;53.170;-2.240;2023-04-21T00:05:36;17.25;17.25;13.50
77239;PMS7003;66258;53.170;-2.240;2023-04-21T00:08:03;18.00;15.75;12.50
77239;PMS7003;66258;53.170;-2.240;2023-04-21T00:10:30;18.75;15.75;11.75
77239;PMS7003;66258;53.170;-2.240;2023-04-21T00:12:58;17.75;17.75;14.25
77239;PMS7003;66258;53.170;-2.240;2023-04-21T00:15:25;10.50;10.50;7.50
77239;PMS7003;66258;53.170;-2.240;2023-04-21T00:17:51;25.00;19.75;15.00
77239;PMS7003;66258;53.170;-2.240;2023-04-21T00:20:18;16.25;14.50;11.25
77239;PMS7003;66258;53.170;-2.240;2023-04-21T00:22:45;19.75;19.75;14.25
77239;PMS7003;66258;53.170;-2.240;2023-04-21T00:25:12;16.25;15.50;11.50
77239;PMS7003;66258;53.170;-2.240;2023-04-21T00:27:38;13.50;13.50;10.25
77239;PMS7003;66258;53.170;-2.240;2023-04-21T00:30:07;14.25;14.25;11.50
77239;PMS7003;66258;53.170;-2.240;2023-04-21T00:32:34;17.25;17.25;14.25
77239;PMS7003;66258;53.170;-2.240;2023-04-21T00:35:01;20.50;18.00;13.00
77239;PMS7003;66258;53.170;-2.240;2023-04-21T00:37:28;17.75;15.25;11.50
77239;PMS7003;66258;53.170;-2.240;2023-04-21T00:39:55;22.50;22.00;18.00
77239;PMS7003;66258;53.170;-2.240;2023-04-21T00:42:22;19.75;14.25;10.75
77239;PMS7003;66258;53.170;-2.240;2023-04-21T00:44:48;14.50;14.50;13.25
77239;PMS7003;66258;53.170;-2.240;2023-04-21T00:47:17;19.75;16.25;13.50
77239;PMS7003;66258;53.170;-2.240;2023-04-21T00:49:43;19.75;18.75;12.75
77239;PMS7003;66258;53.170;-2.240;2023-04-21T00:52:10;21.00;17.25;13.75
77239;PMS7003;66258;53.170;-2.240;2023-04-21T00:54:38;20.25;16.00;13.25
77239;PMS7003;66258;53.170;-2.240;2023-04-21T00:57:05;15.00;15.00;12.00
77239;PMS7003;66258;53.170;-2.240;2023-04-21T00:59:32;18.75;18.00;15.00
77239;PMS7003;66258;53.170;-2.240;2023-04-21T01:01:59;22.75;19.00;14.50
77239;PMS7003;66258;53.170;-2.240;2023-04-21T01:04:28;22.50;19.25;15.50
77239;PMS7003;66258;53.170;-2.240;2023-04-21T01:06:55;23.75;22.25;16.75
77239;PMS7003;66258;53.170;-2.240;2023-04-21T01:09:21;26.25;17.50;11.25
77239;PMS7003;66258;53.170;-2.240;2023-04-21T01:12:01;26.50;22.00;18.00
77239;PMS7003;66258;53.170;-2.240;2023-04-21T01:14:28;26.25;26.25;16.50
77239;PMS7003;66258;53.170;-2.240;2023-04-21T01:16:55;16.25;16.25;13.25
77239;PMS7003;66258;53.170;-2.240;2023-04-21T01:19:22;14.50;12.50;9.25
77239;PMS7003;66258;53.170;-2.240;2023-04-21T01:21:50;247.00;245.25;242.50
77239;PMS7003;66258;53.170;-2.240;2023-04-21T01:24:17;18.00;15.25;12.00
77239;PMS7003;66258;53.170;-2.240;2023-04-21T01:26:45;16.00;13.75;12.50
77239;PMS7003;66258;53.170;-2.240;2023-04-21T01:29:12;33.00;31.00;25.00
77239;PMS7003;66258;53.170;-2.240;2023-04-21T01:31:42;14.00;14.00;12.25
77239;PMS7003;66258;53.170;-2.240;2023-04-21T01:34:09;16.25;14.25;11.00
77239;PMS7003;66258;53.170;-2.240;2023-04-21T01:36:35;29.00;26.75;19.50
77239;PMS7003;66258;53.170;-2.240;2023-04-21T01:39:03;29.00;25.25;22.75
77239;PMS7003;66258;53.170;-2.240;2023-04-21T01:41:30;28.25;27.75;23.75
77239;PMS7003;66258;53.170;-2.240;2023-04-21T01:43:57;27.50;22.00;17.50
77239;PMS7003;66258;53.170;-2.240;2023-04-21T01:46:24;59.67;52.00;40.33
77239;PMS7003;66258;53.170;-2.240;2023-04-21T01:48:50;25.50;25.50;22.50
77239;PMS7003;66258;53.170;-2.240;2023-04-21T01:51:17;19.50;19.00;17.50
77239;PMS7003;66258;53.170;-2.240;2023-04-21T01:53:44;26.50;20.50;17.50
77239;PMS7003;66258;53.170;-2.240;2023-04-21T01:56:13;13.25;11.25;10.00
77239;PMS7003;66258;53.170;-2.240;2023-04-21T01:58:40;20.75;18.75;16.50
77239;PMS7003;66258;53.170;-2.240;2023-04-21T02:01:07;14.00;14.00;12.00
77239;PMS7003;66258;53.170;-2.240;2023-04-21T02:03:34;15.50;11.00;10.00
77239;PMS7003;66258;53.170;-2.240;2023-04-21T02:06:01;464.75;457.75;455.50
77239;PMS7003;66258;53.170;-2.240;2023-04-21T02:08:28;22.75;20.00;16.00
77239;PMS7003;66258;53.170;-2.240;2023-04-21T02:10:55;16.50;15.00;12.25
77239;PMS7003;66258;53.170;-2.240;2023-04-21T02:13:23;52.25;45.75;35.25
77239;PMS7003;66258;53.170;-2.240;2023-04-21T02:15:49;17.00;17.00;13.75
77239;PMS7003;66258;53.170;-2.240;2023-04-21T02:18:27;25.75;22.50;19.25
77239;PMS7003;66258;53.170;-2.240;2023-04-21T02:20:54;20.25;20.25;14.25
77239;PMS7003;66258;53.170;-2.240;2023-04-21T02:23:21;1305.20;1298.40;1290.20
77239;PMS7003;66258;53.170;-2.240;2023-04-21T02:25:47;25.00;18.50;15.50
77239;PMS7003;66258;53.170;-2.240;2023-04-21T02:28:14;11.00;11.00;9.25
77239;PMS7003;66258;53.170;-2.240;2023-04-21T02:30:42;15.50;15.50;12.75
77239;PMS7003;66258;53.170;-2.240;2023-04-21T02:33:09;2293.40;2284.20;2244.20
77239;PMS7003;66258;53.170;-2.240;2023-04-21T02:35:36;20.25;17.25;13.00
77239;PMS7003;66258;53.170;-2.240;2023-04-21T02:38:03;22.25;18.75;16.25
77239;PMS7003;66258;53.170;-2.240;2023-04-21T02:40:29;14.75;14.75;13.00
77239;PMS7003;66258;53.170;-2.240;2023-04-21T02:42:56;31.25;30.50;25.50
77239;PMS7003;66258;53.170;-2.240;2023-04-21T02:45:23;19.25;18.50;16.25
77239;PMS7003;66258;53.170;-2.240;2023-04-21T02:47:51;10.25;10.25;8.00
77239;PMS7003;66258;53.170;-2.240;2023-04-21T02:50:17;39.25;37.75;30.25
77239;PMS7003;66258;53.170;-2.240;2023-04-21T02:52:44;16.50;16.50;12.75
77239;PMS7003;66258;53.170;-2.240;2023-04-21T02:55:11;17.00;15.00;13.25
77239;PMS7003;66258;53.170;-2.240;2023-04-21T02:57:38;16.25;16.25;12.00
77239;PMS7003;66258;53.170;-2.240;2023-04-21T03:00:05;1003.20;999.00;978.40
77239;PMS7003;66258;53.170;-2.240;2023-04-21T03:02:33;4047.00;4047.00;4047.00
77239;PMS7003;66258;53.170;-2.240;2023-04-21T03:05:01;24.00;22.75;20.50
77239;PMS7003;66258;53.170;-2.240;2023-04-21T03:07:28;20.25;18.50;16.00
77239;PMS7003;66258;53.170;-2.240;2023-04-21T03:09:54;38.00;33.60;25.60
77239;PMS7003;66258;53.170;-2.240;2023-04-21T03:12:21;11.50;11.50;9.75
77239;PMS7003;66258;53.170;-2.240;2023-04-21T03:14:48;22.25;18.75;15.25
77239;PMS7003;66258;53.170;-2.240;2023-04-21T03:17:14;14.25;11.75;8.25
77239;PMS7003;66258;53.170;-2.240;2023-04-21T03:19:41;25.25;24.00;21.50
77239;PMS7003;66258;53.170;-2.240;2023-04-21T03:22:09;25.75;25.75;23.25
77239;PMS7003;66258;53.170;-2.240;2023-04-21T03:24:36;36.00;34.25;28.25
77239;PMS7003;66258;53.170;-2.240;2023-04-21T03:27:04;104.20;101.00;94.40
77239;PMS7003;66258;53.170;-2.240;2023-04-21T03:29:30;79.80;68.60;47.00
77239;PMS7003;66258;53.170;-2.240;2023-04-21T03:31:57;17.25;16.50;15.50
77239;PMS7003;66258;53.170;-2.240;2023-04-21T03:34:24;28.75;28.75;24.75
77239;PMS7003;66258;53.170;-2.240;2023-04-21T03:36:51;28.50;22.50;21.00
77239;PMS7003;66258;53.170;-2.240;2023-04-21T03:39:19;20.50;20.50;15.75
77239;PMS7003;66258;53.170;-2.240;2023-04-21T03:41:46;79.80;67.40;50.80
77239;PMS7003;66258;53.170;-2.240;2023-04-21T03:44:13;130.60;125.00;112.20
77239;PMS7003;66258;53.170;-2.240;2023-04-21T03:46:39;20.50;20.50;17.50
77239;PMS7003;66258;53.170;-2.240;2023-04-21T03:49:06;1000.00;999.20;956.40
77239;PMS7003;66258;53.170;-2.240;2023-04-21T03:51:33;24.50;23.50;21.00
77239;PMS7003;66258;53.170;-2.240;2023-04-21T03:53:59;26.75;22.00;16.50
77239;PMS7003;66258;53.170;-2.240;2023-04-21T03:56:27;15.75;13.50;11.00
77239;PMS7003;66258;53.170;-2.240;2023-04-21T03:58:54;21.00;21.00;16.50
77239;PMS7003;66258;53.170;-2.240;2023-04-21T04:01:21;22.00;22.00;18.75
77239;PMS7003;66258;53.170;-2.240;2023-04-21T04:03:48;23.75;22.50;15.50
77239;PMS7003;66258;53.170;-2.240;2023-04-21T04:06:15;15.75;15.75;12.25
77239;PMS7003;66258;53.170;-2.240;2023-04-21T04:08:41;22.75;22.25;12.50
77239;PMS7003;66258;53.170;-2.240;2023-04-21T04:11:08;18.00;15.50;10.25
77239;PMS7003;66258;53.170;-2.240;2023-04-21T04:13:36;22.50;17.75;13.50
77239;PMS7003;66258;53.170;-2.240;2023-04-21T04:16:03;35.75;30.25;23.50
77239;PMS7003;66258;53.170;-2.240;2023-04-21T04:18:30;611.00;609.50;604.50
77239;PMS7003;66258;53.170;-2.240;2023-04-21T04:20:57;24.50;21.25;12.50
77239;PMS7003;66258;53.170;-2.240;2023-04-21T04:23:24;24.50;18.50;10.25
77239;PMS7003;66258;53.170;-2.240;2023-04-21T04:25:50;20.25;20.25;16.00
77239;PMS7003;66258;53.170;-2.240;2023-04-21T04:28:17;29.00;22.25;14.00
77239;PMS7003;66258;53.170;-2.240;2023-04-21T04:30:45;23.50;19.00;14.25
77239;PMS7003;66258;53.170;-2.240;2023-04-21T04:33:12;50.00;44.00;33.00
77239;PMS7003;66258;53.170;-2.240;2023-04-21T04:35:38;28.00;26.00;20.50
77239;PMS7003;66258;53.170;-2.240;2023-04-21T04:38:05;47.50;41.25;31.25
77239;PMS7003;66258;53.170;-2.240;2023-04-21T04:40:32;20.25;18.00;14.50
77239;PMS7003;66258;53.170;-2.240;2023-04-21T04:42:59;26.50;26.50;20.75
77239;PMS7003;66258;53.170;-2.240;2023-04-21T04:45:25;62.00;51.00;39.50
77239;PMS7003;66258;53.170;-2.240;2023-04-21T04:47:54;22.50;22.50;15.75
77239;PMS7003;66258;53.170;-2.240;2023-04-21T04:50:21;3333.00;3326.80;3307.40
77239;PMS7003;66258;53.170;-2.240;2023-04-21T04:52:47;33.00;31.50;24.00
77239;PMS7003;66258;53.170;-2.240;2023-04-21T04:55:14;28.00;28.00;22.50
77239;PMS7003;66258;53.170;-2.240;2023-04-21T04:57:41;29.25;26.75;20.00
77239;PMS7003;66258;53.170;-2.240;2023-04-21T05:00:08;34.25;26.25;21.25
77239;PMS7003;66258;53.170;-2.240;2023-04-21T05:02:35;32.50;32.00;24.50
77239;PMS7003;66258;53.170;-2.240;2023-04-21T05:05:05;2953.00;2953.00;2950.50
77239;PMS7003;66258;53.170;-2.240;2023-04-21T05:07:33;56.50;46.75;35.00
77239;PMS7003;66258;53.170;-2.240;2023-04-21T05:10:00;81.25;60.75;44.25
77239;PMS7003;66258;53.170;-2.240;2023-04-21T05:12:26;62.67;51.67;39.67
77239;PMS7003;66258;53.170;-2.240;2023-04-21T05:14:53;54.00;46.75;34.50
77239;PMS7003;66258;53.170;-2.240;2023-04-21T05:17:20;3044.75;3035.00;3009.50
77239;PMS7003;66258;53.170;-2.240;2023-04-21T05:19:47;2604.75;2603.50;2602.00
77239;PMS7003;66258;53.170;-2.240;2023-04-21T05:22:15;654.50;649.25;643.00
77239;PMS7003;66258;53.170;-2.240;2023-04-21T05:24:41;1014.50;1013.75;1011.75
77239;PMS7003;66258;53.170;-2.240;2023-04-21T05:27:08;370.80;364.00;354.20
77239;PMS7003;66258;53.170;-2.240;2023-04-21T05:29:35;369.25;358.50;345.25
77239;PMS7003;66258;53.170;-2.240;2023-04-21T05:32:01;1235.20;1231.40;1214.00
77239;PMS7003;66258;53.170;-2.240;2023-04-21T05:34:28;680.00;676.20;662.60
77239;PMS7003;66258;53.170;-2.240;2023-04-21T05:36:55;58.75;49.00;37.75
77239;PMS7003;66258;53.170;-2.240;2023-04-21T05:39:23;445.40;439.60;430.00
77239;PMS7003;66258;53.170;-2.240;2023-04-21T05:41:50;452.25;443.25;434.25
77239;PMS7003;66258;53.170;-2.240;2023-04-21T05:44:16;52.75;42.25;31.50
77239;PMS7003;66258;53.170;-2.240;2023-04-21T05:46:44;97.00;94.20;66.40
77239;PMS7003;66258;53.170;-2.240;2023-04-21T05:49:10;42.25;38.75;29.75
77239;PMS7003;66258;53.170;-2.240;2023-04-21T05:51:37;67.67;56.00;45.33
77239;PMS7003;66258;53.170;-2.240;2023-04-21T05:54:04;67.75;53.00;38.75
77239;PMS7003;66258;53.170;-2.240;2023-04-21T05:56:32;89.25;83.75;72.50
77239;PMS7003;66258;53.170;-2.240;2023-04-21T05:58:59;50.50;40.00;28.25
77239;PMS7003;66258;53.170;-2.240;2023-04-21T06:01:25;39.50;33.50;23.25
77239;PMS7003;66258;53.170;-2.240;2023-04-21T06:03:52;78.75;65.00;54.25
77239;PMS7003;66258;53.170;-2.240;2023-04-21T06:06:19;585.40;582.00;572.40
77239;PMS7003;66258;53.170;-2.240;2023-04-21T06:08:46;1927.75;1922.00;1888.50
77239;PMS7003;66258;53.170;-2.240;2023-04-21T06:11:12;3969.00;3969.00;3969.00
77239;PMS7003;66258;53.170;-2.240;2023-04-21T06:13:41;60.20;50.40;34.60
77239;PMS7003;66258;53.170;-2.240;2023-04-21T06:16:08;1213.67;1207.67;1192.33
77239;PMS7003;66258;53.170;-2.240;2023-04-21T06:18:35;38.00;29.75;17.50
77239;PMS7003;66258;53.170;-2.240;2023-04-21T06:21:02;443.25;443.25;434.75
77239;PMS7003;66258;53.170;-2.240;2023-04-21T06:23:29;334.75;325.25;317.00
77239;PMS7003;66258;53.170;-2.240;2023-04-21T06:25:59;3947.40;3947.40;3947.40
77239;PMS7003;66258;53.170;-2.240;2023-04-21T06:28:26;328.00;320.60;283.20
77239;PMS7003;66258;53.170;-2.240;2023-04-21T06:30:54;3929.25;3929.25;3929.25
77239;PMS7003;66258;53.170;-2.240;2023-04-21T06:33:21;3406.75;3406.75;3405.75
77239;PMS7003;66258;53.170;-2.240;2023-04-21T06:35:48;3922.25;3922.25;3922.25
77239;PMS7003;66258;53.170;-2.240;2023-04-21T06:38:15;122.25;120.00;115.25
77239;PMS7003;66258;53.170;-2.240;2023-04-21T06:40:41;3659.33;3658.00;3658.00
77239;PMS7003;66258;53.170;-2.240;2023-04-21T06:43:08;1631.00;1629.25;1597.00
77239;PMS7003;66258;53.170;-2.240;2023-04-21T06:45:35;3900.00;3900.00;3900.00
77239;PMS7003;66258;53.170;-2.240;2023-04-21T06:48:03;1108.25;1098.25;1084.50
77239;PMS7003;66258;53.170;-2.240;2023-04-21T06:50:30;1383.75;1382.75;1378.50
77239;PMS7003;66258;53.170;-2.240;2023-04-21T06:52:57;3868.25;3868.25;3868.25
77239;PMS7003;66258;53.170;-2.240;2023-04-21T06:55:24;3847.20;3847.20;3847.20
77239;PMS7003;66258;53.170;-2.240;2023-04-21T06:57:51;3849.20;3849.20;3849.20
77239;PMS7003;66258;53.170;-2.240;2023-04-21T07:00:17;3717.40;3715.80;3713.80
77239;PMS7003;66258;53.170;-2.240;2023-04-21T07:02:44;3857.60;3857.60;3857.60
77239;PMS7003;66258;53.170;-2.240;2023-04-21T07:05:13;3898.40;3898.40;3898.40
77239;PMS7003;66258;53.170;-2.240;2023-04-21T07:07:39;3890.75;3890.75;3890.75
77239;PMS7003;66258;53.170;-2.240;2023-04-21T07:10:06;3558.00;3557.40;3556.80
77239;PMS7003;66258;53.170;-2.240;2023-04-21T07:12:34;3854.60;3854.60;3854.60
77239;PMS7003;66258;53.170;-2.240;2023-04-21T07:15:00;3295.25;3293.50;3293.00
77239;PMS7003;66258;53.170;-2.240;2023-04-21T07:17:27;2724.67;2722.33;2720.00
77239;PMS7003;66258;53.170;-2.240;2023-04-21T07:19:54;3728.00;3728.00;3727.50
77239;PMS7003;66258;53.170;-2.240;2023-04-21T07:22:22;3807.60;3807.60;3807.60
77239;PMS7003;66258;53.170;-2.240;2023-04-21T07:24:49;3782.20;3782.20;3782.20
77239;PMS7003;66258;53.170;-2.240;2023-04-21T07:27:16;3800.40;3800.40;3800.40
77239;PMS7003;66258;53.170;-2.240;2023-04-21T07:29:43;3784.00;3784.00;3784.00
77239;PMS7003;66258;53.170;-2.240;2023-04-21T07:32:10;3791.40;3791.40;3791.40
77239;PMS7003;66258;53.170;-2.240;2023-04-21T07:34:36;3800.40;3800.40;3800.40
77239;PMS7003;66258;53.170;-2.240;2023-04-21T07:37:04;3783.40;3783.40;3783.40
77239;PMS7003;66258;53.170;-2.240;2023-04-21T07:39:32;3520.80;3518.40;3504.00
77239;PMS7003;66258;53.170;-2.240;2023-04-21T07:41:59;3793.60;3793.60;3793.60
77239;PMS7003;66258;53.170;-2.240;2023-04-21T07:44:26;3822.80;3822.80;3822.80
77239;PMS7003;66258;53.170;-2.240;2023-04-21T07:46:52;3781.60;3781.60;3781.60
77239;PMS7003;66258;53.170;-2.240;2023-04-21T07:49:20;3423.60;3418.60;3407.60
77239;PMS7003;66258;53.170;-2.240;2023-04-21T07:51:47;3817.40;3817.40;3817.40
77239;PMS7003;66258;53.170;-2.240;2023-04-21T07:54:13;3046.67;3046.67;3045.33
77239;PMS7003;66258;53.170;-2.240;2023-04-21T07:56:41;3783.40;3783.40;3783.40
77239;PMS7003;66258;53.170;-2.240;2023-04-21T07:59:08;3728.00;3728.00;3728.00
77239;PMS7003;66258;53.170;-2.240;2023-04-21T08:01:35;3718.00;3718.00;3718.00
77239;PMS7003;66258;53.170;-2.240;2023-04-21T08:04:02;3754.50;3754.50;3754.50
77239;PMS7003;66258;53.170;-2.240;2023-04-21T08:06:29;3400.00;3394.00;3378.00
77239;PMS7003;66258;53.170;-2.240;2023-04-21T08:08:56;3721.40;3721.40;3721.40
77239;PMS7003;66258;53.170;-2.240;2023-04-21T08:11:22;3730.20;3730.20;3730.20
77239;PMS7003;66258;53.170;-2.240;2023-04-21T08:13:51;3713.40;3713.40;3713.40
77239;PMS7003;66258;53.170;-2.240;2023-04-21T08:16:17;3303.20;3301.40;3283.00
77239;PMS7003;66258;53.170;-2.240;2023-04-21T08:18:44;3711.80;3711.80;3711.80
77239;PMS7003;66258;53.170;-2.240;2023-04-21T08:21:11;3686.20;3685.80;3684.80
77239;PMS7003;66258;53.170;-2.240;2023-04-21T08:23:38;3256.75;3256.75;3256.00
77239;PMS7003;66258;53.170;-2.240;2023-04-21T08:26:04;3707.60;3707.60;3706.20
77239;PMS7003;66258;53.170;-2.240;2023-04-21T08:28:31;3750.75;3750.75;3750.75
77239;PMS7003;66258;53.170;-2.240;2023-04-21T08:31:00;3783.60;3783.60;3783.60
77239;PMS7003;66258;53.170;-2.240;2023-04-21T08:33:26;3817.40;3817.40;3817.40
77239;PMS7003;66258;53.170;-2.240;2023-04-21T08:35:53;3849.00;3849.00;3849.00
77239;PMS7003;66258;53.170;-2.240;2023-04-21T08:38:30;3885.80;3885.80;3885.80
77239;PMS7003;66258;53.170;-2.240;2023-04-21T08:40:57;60.50;51.00;35.50
77239;PMS7003;66258;53.170;-2.240;2023-04-21T08:43:25;3848.60;3848.60;3848.60
77239;PMS7003;66258;53.170;-2.240;2023-04-21T08:45:52;3869.20;3869.20;3869.20
77239;PMS7003;66258;53.170;-2.240;2023-04-21T08:48:21;3852.80;3852.80;3852.80
77239;PMS7003;66258;53.170;-2.240;2023-04-21T08:50:48;2248.00;2164.00;2117.60
77239;PMS7003;66258;53.170;-2.240;2023-04-21T08:53:16;3438.20;3434.80;3430.40
77239;PMS7003;66258;53.170;-2.240;2023-04-21T08:55:43;3610.25;3609.50;3599.75
77239;PMS7003;66258;53.170;-2.240;2023-04-21T08:58:16;3842.00;3842.00;3842.00
77239;PMS7003;66258;53.170;-2.240;2023-04-21T09:00:43;3889.40;3889.40;3889.40
77239;PMS7003;66258;53.170;-2.240;2023-04-21T09:03:10;3907.40;3907.40;3907.40
77239;PMS7003;66258;53.170;-2.240;2023-04-21T09:05:58;35.00;28.75;20.50
77239;PMS7003;66258;53.170;-2.240;2023-04-21T09:08:27;3888.50;3888.50;3888.50
77239;PMS7003;66258;53.170;-2.240;2023-04-21T09:10:54;3923.60;3923.60;3923.60
77239;PMS7003;66258;53.170;-2.240;2023-04-21T09:13:28;3195.60;3188.40;3175.00
77239;PMS7003;66258;53.170;-2.240;2023-04-21T09:15:56;3147.00;3131.80;3118.80
77239;PMS7003;66258;53.170;-2.240;2023-04-21T09:18:23;3911.20;3911.20;3911.20
77239;PMS7003;66258;53.170;-2.240;2023-04-21T09:20:51;3908.75;3908.75;3908.75
77239;PMS7003;66258;53.170;-2.240;2023-04-21T09:23:42;2994.25;2993.75;2992.00
77239;PMS7003;66258;53.170;-2.240;2023-04-21T09:26:10;3061.80;3035.60;3015.20
77239;PMS7003;66258;53.170;-2.240;2023-04-21T09:28:39;3070.00;3022.75;2999.25
77239;PMS7003;66258;53.170;-2.240;2023-04-21T09:31:11;3955.80;3955.00;3952.60
77239;PMS7003;66258;53.170;-2.240;2023-04-21T09:33:43;50.50;38.75;27.00
77239;PMS7003;66258;53.170;-2.240;2023-04-21T09:36:25;3955.50;3955.00;3954.25
77239;PMS7003;66258;53.170;-2.240;2023-04-21T09:38:56;3542.50;3542.50;3540.75
77239;PMS7003;66258;53.170;-2.240;2023-04-21T09:41:26;4115.00;4115.00;4115.00
77239;PMS7003;66258;53.170;-2.240;2023-04-21T09:43:53;4129.00;4129.00;4129.00
77239;PMS7003;66258;53.170;-2.240;2023-04-21T09:46:20;900.60;871.40;855.80
77239;PMS7003;66258;53.170;-2.240;2023-04-21T09:48:48;4167.00;4167.00;4167.00
77239;PMS7003;66258;53.170;-2.240;2023-04-21T09:51:17;4035.60;4034.60;4034.40
77239;PMS7003;66258;53.170;-2.240;2023-04-21T09:54:06;3656.25;3655.00;3651.50
77239;PMS7003;66258;53.170;-2.240;2023-04-21T09:56:55;3642.20;3621.80;3610.00
77239;PMS7003;66258;53.170;-2.240;2023-04-21T09:59:25;43.75;38.75;26.00
77239;PMS7003;66258;53.170;-2.240;2023-04-21T10:01:58;2904.40;2904.40;2902.20
77239;PMS7003;66258;53.170;-2.240;2023-04-21T10:04:25;3878.00;3878.00;3873.50
77239;PMS7003;66258;53.170;-2.240;2023-04-21T10:06:55;4156.50;4156.50;4156.50
77239;PMS7003;66258;53.170;-2.240;2023-04-21T10:09:24;4136.00;4136.00;4136.00
77239;PMS7003;66258;53.170;-2.240;2023-04-21T10:11:56;4151.00;4151.00;4151.00
77239;PMS7003;66258;53.170;-2.240;2023-04-21T10:14:23;4108.50;4108.50;4108.50
77239;PMS7003;66258;53.170;-2.240;2023-04-21T10:16:54;3962.20;3962.20;3959.00
77239;PMS7003;66258;53.170;-2.240;2023-04-21T10:19:22;4075.00;4075.00;4075.00
77239;PMS7003;66258;53.170;-2.240;2023-04-21T10:21:50;4083.00;4083.00;4083.00
77239;PMS7003;66258;53.170;-2.240;2023-04-21T10:24:16;3418.25;3354.50;3306.00
77239;PMS7003;66258;53.170;-2.240;2023-04-21T10:26:45;4115.20;4115.20;4115.20
77239;PMS7003;66258;53.170;-2.240;2023-04-21T10:29:12;4097.00;4097.00;4097.00
77239;PMS7003;66258;53.170;-2.240;2023-04-21T10:31:48;4081.50;4081.50;4081.50
77239;PMS7003;66258;53.170;-2.240;2023-04-21T10:34:17;4077.00;4077.00;4077.00
77239;PMS7003;66258;53.170;-2.240;2023-04-21T10:39:56;1954.75;1952.25;1951.00
77239;PMS7003;66258;53.170;-2.240;2023-04-21T10:42:25;39.00;33.25;22.50
77239;PMS7003;66258;53.170;-2.240;2023-04-21T10:45:01;4103.00;4103.00;4103.00
77239;PMS7003;66258;53.170;-2.240;2023-04-21T10:47:35;4123.75;4123.75;4123.75
77239;PMS7003;66258;53.170;-2.240;2023-04-21T10:50:17;4121.20;4121.20;4121.20
77239;PMS7003;66258;53.170;-2.240;2023-04-21T10:52:51;4141.50;4141.50;4141.50
77239;PMS7003;66258;53.170;-2.240;2023-04-21T10:55:19;3466.00;3462.75;3457.00
77239;PMS7003;66258;53.170;-2.240;2023-04-21T10:57:48;2374.80;2305.80;2264.00
77239;PMS7003;66258;53.170;-2.240;2023-04-21T11:00:16;4143.80;4143.80;4143.80
77239;PMS7003;66258;53.170;-2.240;2023-04-21T11:02:51;3629.25;3618.00;3601.00
77239;PMS7003;66258;53.170;-2.240;2023-04-21T11:05:26;4093.00;4093.00;4093.00
77239;PMS7003;66258;53.170;-2.240;2023-04-21T11:08:01;4113.75;4113.75;4113.75
77239;PMS7003;66258;53.170;-2.240;2023-04-21T11:10:28;3792.25;3792.25;3791.50
77239;PMS7003;66258;53.170;-2.240;2023-04-21T11:12:57;4000.40;4000.40;4000.40
77239;PMS7003;66258;53.170;-2.240;2023-04-21T11:15:24;3704.20;3691.20;3685.20
77239;PMS7003;66258;53.170;-2.240;2023-04-21T11:17:51;3587.60;3566.80;3554.80
77239;PMS7003;66258;53.170;-2.240;2023-04-21T11:20:17;3920.20;3920.20;3920.20
77239;PMS7003;66258;53.170;-2.240;2023-04-21T11:22:44;4042.25;4042.25;4042.25
77239;PMS7003;66258;53.170;-2.240;2023-04-21T11:25:15;3645.00;3633.00;3622.60
77239;PMS7003;66258;53.170;-2.240;2023-04-21T11:27:51;4063.80;4063.80;4063.80
77239;PMS7003;66258;53.170;-2.240;2023-04-21T11:30:20;4040.60;4040.60;4040.60
77239;PMS7003;66258;53.170;-2.240;2023-04-21T11:32:52;4017.40;4017.40;4017.40
77239;PMS7003;66258;53.170;-2.240;2023-04-21T11:35:19;4037.50;4037.50;4037.50
77239;PMS7003;66258;53.170;-2.240;2023-04-21T11:37:46;4002.60;4002.60;4002.60
77239;PMS7003;66258;53.170;-2.240;2023-04-21T11:40:15;4052.00;4052.00;4052.00
77239;PMS7003;66258;53.170;-2.240;2023-04-21T11:42:42;3712.80;3710.80;3705.80
77239;PMS7003;66258;53.170;-2.240;2023-04-21T11:45:15;3929.40;3926.60;3922.60
77239;PMS7003;66258;53.170;-2.240;2023-04-21T11:47:46;3700.40;3698.20;3691.00
77239;PMS7003;66258;53.170;-2.240;2023-04-21T11:50:16;4075.80;4075.80;4075.80
77239;PMS7003;66258;53.170;-2.240;2023-04-21T11:52:55;4121.00;4121.00;4121.00
77239;PMS7003;66258;53.170;-2.240;2023-04-21T11:55:22;4113.00;4113.00;4113.00
77239;PMS7003;66258;53.170;-2.240;2023-04-21T11:57:49;3672.20;3661.20;3646.20
77239;PMS7003;66258;53.170;-2.240;2023-04-21T12:00:16;3380.40;3343.40;3313.40
77239;PMS7003;66258;53.170;-2.240;2023-04-21T12:02:44;4153.20;4153.20;4153.20
77239;PMS7003;66258;53.170;-2.240;2023-04-21T12:05:21;2689.40;2633.40;2584.80
77239;PMS7003;66258;53.170;-2.240;2023-04-21T12:07:48;3881.20;3876.80;3870.80
77239;PMS7003;66258;53.170;-2.240;2023-04-21T12:10:16;2765.40;2747.40;2733.60
77239;PMS7003;66258;53.170;-2.240;2023-04-21T12:12:44;3613.00;3603.00;3597.25
77239;PMS7003;66258;53.170;-2.240;2023-04-21T12:15:11;3376.40;3327.80;3305.00
77239;PMS7003;66258;53.170;-2.240;2023-04-21T12:17:43;3763.20;3762.40;3754.40
77239;PMS7003;66258;53.170;-2.240;2023-04-21T12:20:13;4103.50;4103.50;4103.50
77239;PMS7003;66258;53.170;-2.240;2023-04-21T12:22:41;4131.00;4131.00;4131.00
77239;PMS7003;66258;53.170;-2.240;2023-04-21T12:25:08;2906.80;2894.40;2880.40
77239;PMS7003;66258;53.170;-2.240;2023-04-21T12:27:45;2510.60;2384.40;2318.20
77239;PMS7003;66258;53.170;-2.240;2023-04-21T12:30:13;3055.75;2962.00;2912.75
77239;PMS7003;66258;53.170;-2.240;2023-04-21T12:32:40;4111.25;4111.25;4111.25
77239;PMS7003;66258;53.170;-2.240;2023-04-21T12:35:07;4103.00;4103.00;4103.00
77239;PMS7003;66258;53.170;-2.240;2023-04-21T12:37:36;3735.40;3718.40;3716.20
77239;PMS7003;66258;53.170;-2.240;2023-04-21T12:40:03;4145.20;4145.20;4145.20
77239;PMS7003;66258;53.170;-2.240;2023-04-21T12:42:30;3895.00;3893.00;3891.50
77239;PMS7003;66258;53.170;-2.240;2023-04-21T12:44:57;3745.25;3743.00;3738.00
77239;PMS7003;66258;53.170;-2.240;2023-04-21T12:47:24;4184.75;4184.75;4184.75
77239;PMS7003;66258;53.170;-2.240;2023-04-21T12:49:50;4168.20;4168.20;4168.20
77239;PMS7003;66258;53.170;-2.240;2023-04-21T12:52:17;18.25;17.50;15.25
77239;PMS7003;66258;53.170;-2.240;2023-04-21T12:54:45;31.75;22.50;16.50
77239;PMS7003;66258;53.170;-2.240;2023-04-21T12:57:12;3154.80;3098.60;3074.80
77239;PMS7003;66258;53.170;-2.240;2023-04-21T12:59:39;3447.50;3423.75;3409.00
77239;PMS7003;66258;53.170;-2.240;2023-04-21T13:02:06;3558.80;3539.80;3529.60
77239;PMS7003;66258;53.170;-2.240;2023-04-21T13:04:33;4089.00;4089.00;4089.00
77239;PMS7003;66258;53.170;-2.240;2023-04-21T13:07:00;4038.60;4038.60;4038.60